x

9449880 - Friday Harbor, Wa (frdw1) Weather Station

8:36 - Mon 29th May 2017 All times are PDT. -7 hours from GMT.

  • Wind
    7mph, 9mph gusts
  • Sea Temp 50°f
  • Aire Temp 52°f
  • Sea Pressure 1018.5mb
  • 9449880 - Friday Harbor, Wa
  • 9449880 - Friday Harbor, Wa

More Historic Weather Station data

Upgrade to MSW Pro to gain access to the past 30 days of data for over 8000 Wavebouys and Weather Stations around the globe.

Join Pro

Comparision Forecast

View Surf forecast
   
lun 05/29 8:36 7 9 mph 1018.5mb 50f 52f
8:30 7 9 mph 1018.4mb 50f 52f
8:24 6 8 mph 1018.4mb 50f 51f
8:18 6 8 mph 1018.5mb 50f 51f
8:12 3 6 mph 1018.5mb 50f 51f
8:06 3 7 mph 1018.5mb 50f 51f
8:00 6 8 mph 1018.5mb 50f 50f
7:36 6 8 mph 1018.3mb 50f 50f
7:30 7 9 mph 1018.3mb 50f 51f
7:24 7 9 mph 1018.2mb 50f 51f
7:18 5 6 mph 1018.2mb 50f 51f
7:12 6 7 mph 1018.2mb 50f 50f
7:06 7 10 mph 1018.1mb 50f 50f
7:00 7 9 mph 1018.2mb 50f 50f
6:36 7 9 mph 1018.1mb 50f 50f
6:30 7 9 mph 1018mb 50f 50f
6:24 8 9 mph 1018mb 50f 50f
6:18 7 8 mph 1018mb 50f 50f
6:12 7 8 mph 1017.9mb 50f 50f
6:06 8 9 mph 1017.8mb 50f 50f
6:00 7 9 mph 1017.9mb 50f 50f
5:36 7 8 mph 1017.7mb 50f 50f
5:30 7 8 mph 1017.7mb 50f 50f
5:24 6 8 mph 1017.6mb 50f 50f
5:18 7 8 mph 1017.7mb 50f 50f
5:12 5 7 mph 1017.6mb 50f 50f
5:06 6 7 mph 1017.5mb 50f 50f
5:00 5 7 mph 1017.4mb 50f 50f
4:36 2 5 mph 1017.6mb 50f 50f
4:30 2 3 mph 1017.5mb 50f 50f
4:24 2 3 mph 1017.5mb 50f 50f
4:18 2 2 mph 1017.4mb 50f 50f
4:12 2 3 mph 1017.4mb 50f 50f
4:06  -  2 mph 1017.4mb 50f 50f
4:00 2 3 mph 1017.4mb 50f 50f
3:36 2 3 mph 1017.4mb 50f 50f
3:30 1 2 mph 1017.4mb 50f 50f
3:24  -  2 mph 1017.4mb 50f 50f
3:18  -  1 mph 1017.3mb 50f 50f
3:12 1 2 mph 1017.3mb 50f 50f
3:06 1 2 mph 1017.4mb 50f 50f
3:00  -  2 mph 1017.3mb 50f 50f
2:36 1 2 mph 1017.2mb 50f 51f
2:30  -  2 mph 1017.2mb 50f 51f
2:24 1 2 mph 1017.2mb 50f 51f
2:18  -  2 mph 1017.2mb 50f 51f
2:12 2 3 mph 1017.1mb 50f 51f
2:06 2 2 mph 1017.1mb 50f 51f
2:00 1 3 mph 1017.1mb 50f 51f
1:36 1 3 mph 1017.1mb 50f 51f
1:30 2 3 mph 1017.1mb 50f 51f
1:24 1 3 mph 1017mb 50f 51f
1:18 1 2 mph 1017.1mb 50f 51f
1:12  -  1 mph 1017.1mb 50f 51f
1:06  -  1 mph 1017.1mb 50f 51f
1:00  -  1 mph 1017mb 50f 51f
12:36 1 2 mph 1016.8mb 50f 51f
12:30 1 2 mph 1016.8mb 50f 51f
12:24 1 2 mph 1016.9mb 50f 51f
12:18 2 3 mph 1016.9mb 50f 51f
12:12 2 3 mph 1016.8mb 50f 51f
12:06 3 5 mph 1016.8mb 50f 51f
12:00 2 3 mph 1016.8mb 50f 51f
dom 05/28 11:36 3 6 mph 1016.7mb 50f 51f
11:30 5 5 mph 1016.7mb 50f 51f
11:24 2 3 mph 1016.7mb 50f 51f
11:18 1 3 mph 1016.7mb 50f 52f
11:12 3 5 mph 1016.7mb 50f 52f
11:06 2 6 mph 1016.7mb 50f 52f
11:00 5 6 mph 1016.8mb 50f 52f
10:36 3 5 mph 1017mb 50f 52f
10:30 3 5 mph 1017mb 50f 52f
10:24 3 6 mph 1016.9mb 50f 52f
10:18 1 3 mph 1016.9mb 50f 52f
10:12  -  1 mph 1016.9mb 50f 52f
10:06  -  1 mph 1016.9mb 50f 52f
10:00  -  1 mph 1016.9mb 50f 52f
9:36  -  2 mph 1017mb 50f 53f
9:30 1 3 mph 1017mb 50f 52f
9:24 2 5 mph 1017mb 50f 53f
9:18 2 5 mph 1016.9mb 50f 53f
9:12 5 6 mph 1016.9mb 50f 53f
9:06 6 6 mph 1016.9mb 50f 53f
9:00 5 6 mph 1016.9mb 50f 53f
8:36 7 9 mph 1017.1mb 50f 53f
8:30 8 9 mph 1017.1mb 50f 54f
8:24 9 10 mph 1017.1mb 50f 54f
8:18 9 10 mph 1017.1mb 50f 55f
8:12 9 10 mph 1017mb 50f 55f
8:06 9 9 mph 1017.1mb 50f 55f
8:00 9 9 mph 1017.2mb 50f 56f
7:36 8 9 mph 1017mb 50f 59f
7:30 2 5 mph 1017mb 50f 61f
7:24 2 5 mph 1016.9mb 50f 58f
7:18 3 5 mph 1016.8mb 50f 59f
7:12 3 3 mph 1016.8mb 50f 59f
7:06 3 5 mph 1016.9mb 50f 57f
7:00 2 3 mph 1016.9mb 50f 58f
6:36  -  1 mph 1017mb 50f 64f
6:30  -  3 mph 1017mb 50f 62f
6:24 2 3 mph 1017.1mb 50f 61f
6:18  -  5 mph 1017.1mb 50f 61f
6:12 3 3 mph 1017.2mb 50f 60f
6:06 3 5 mph 1017.2mb 50f 59f
6:00 5 5 mph 1017.2mb 50f 60f
5:36 3 6 mph 1017.5mb 50f 62f
5:30 3 5 mph 1017.6mb 50f 62f
5:24 2 5 mph 1017.7mb 50f 63f
5:18  -  2 mph 1017.7mb 50f 66f
5:12 1 5 mph 1017.8mb 50f 68f
5:06 6 7 mph 1017.9mb 50f 70f
5:00 6 8 mph 1017.9mb 50f 69f
4:36 8 8 mph 1018.1mb 50f 68f
4:30 7 8 mph 1018.1mb 51f 69f
4:24 7 8 mph 1018.2mb 51f 68f
4:18 8 8 mph 1018.2mb 51f 68f
4:12 3 6 mph 1018.3mb 52f 69f
4:06 2 2 mph 1018.3mb 52f 68f
4:00 1 6 mph 1018.3mb 52f 67f
3:36 6 8 mph 1018.5mb 53f 65f
3:30 3 6 mph 1018.5mb 53f 65f
3:24 1 5 mph 1018.5mb 53f 63f
3:18 2 3 mph 1018.6mb 52f 63f
3:12 2 3 mph 1018.6mb 52f 64f
3:06  -  2 mph 1018.6mb 51f 65f
3:00 1 3 mph 1018.7mb 52f 67f
2:36 3 3 mph 1018.8mb 52f 62f
2:30 3 3 mph 1018.8mb 52f 62f
2:24 2 5 mph 1018.9mb 52f 61f
2:18 5 5 mph 1018.9mb 52f 61f
2:12 5 5 mph 1019mb 52f 60f
2:06 5 5 mph 1019mb 51f 61f
2:00 5 5 mph 1019.1mb 51f 60f
1:36 5 6 mph 1019.2mb 51f 61f
1:30 5 6 mph 1019.2mb 51f 61f
1:24 6 6 mph 1019.2mb 51f 61f
1:18 5 7 mph 1019.3mb 51f 61f
1:12 5 6 mph 1019.3mb 51f 62f
1:06 5 6 mph 1019.3mb 51f 61f
1:00 5 6 mph 1019.3mb 51f 60f
12:36  -  2 mph 1019.5mb 51f 64f
12:30  -  1 mph 1019.5mb 51f 64f
12:24  -  2 mph 1019.6mb 51f 62f
12:18 2 3 mph 1019.6mb 51f 60f
12:12 3 3 mph 1019.7mb 51f 58f
12:06 2 3 mph 1019.7mb 51f 60f
12:00 3 5 mph 1019.7mb 51f 58f
11:36 1 1 mph 1019.8mb 51f 63f
11:30  -  1 mph 1019.8mb 51f 63f
11:24 1 2 mph 1019.8mb 51f 61f
11:18 2 2 mph 1019.8mb 51f 60f
11:12 2 2 mph 1019.9mb 51f 60f
11:06 2 3 mph 1019.9mb 51f 59f
11:00 3 5 mph 1019.9mb 51f 58f
10:36 1 2 mph 1019.9mb 51f 61f
10:30 2 2 mph 1019.9mb 51f 61f
10:24 1 2 mph 1019.9mb 51f 60f
10:18 1 1 mph 1019.9mb 50f 61f
10:12  -  2 mph 1019.9mb 50f 59f
10:06 2 3 mph 1019.8mb 50f 58f
10:00 2 3 mph 1019.8mb 50f 57f
9:54 2 3 mph 1019.9mb 50f 57f
9:48 3 5 mph 1019.9mb 50f 56f
9:36 2 2 mph 1019.9mb 50f 56f
9:30 1 2 mph 1019.9mb 50f 57f
9:24  -  2 mph 1019.9mb 50f 58f
9:18  -  2 mph 1019.9mb 50f 58f
9:12  -  1 mph 1019.9mb 50f 59f
9:06  -  1 mph 1020mb 50f 57f
9:00  -  1 mph 1019.9mb 50f 58f
8:54  -  1 mph 1019.9mb 50f 56f
8:48 1 2 mph 1019.8mb 50f 56f
8:36 1 1 mph 1019.9mb 50f 58f
8:30  -  1 mph 1019.9mb 50f 59f
8:24  -  1 mph 1019.9mb 50f 58f
8:18  -  1 mph 1019.9mb 50f 58f
8:12  -  1 mph 1019.9mb 50f 57f
8:06  -  1 mph 1019.8mb 50f 55f
8:00  -  1 mph 1019.8mb 50f 55f
7:54  -  0 mph 1019.8mb 50f 56f
7:48  -  1 mph 1019.8mb 50f 54f
7:36  -  1 mph 1019.7mb 51f 53f
7:30  -  0 mph 1019.7mb 51f 53f
7:24  -  1 mph 1019.6mb 51f 53f
7:18  -  1 mph 1019.6mb 51f 53f
7:12  -  1 mph 1019.6mb 51f 53f
7:06  -  2 mph 1019.5mb 51f 52f
7:00  -  1 mph 1019.4mb 51f 53f
6:54 1 2 mph 1019.5mb 51f 53f
6:48  -  1 mph 1019.4mb 51f 53f
6:36  -  1 mph 1019.4mb 51f 54f
6:30  -  1 mph 1019.3mb 51f 53f
6:24  -  1 mph 1019.3mb 51f 53f
6:18  -  0 mph 1019.2mb 51f 54f
6:12  -  0 mph 1019.2mb 51f 53f
6:06  -  0 mph 1019.1mb 51f 54f
6:00  -  0 mph 1019.1mb 51f 53f
5:54  -  0 mph 1019.1mb 51f 52f
5:48  -  0 mph 1019mb 51f 51f
5:36 2 2 mph 1019mb 51f 49f
5:30  -  1 mph 1018.9mb 51f 49f
5:24  -  1 mph 1018.9mb 51f 49f
5:18 1 2 mph 1018.9mb 51f 49f
5:12 1 2 mph 1018.9mb 51f 49f
5:06 1 2 mph 1018.8mb 51f 50f
5:00  -  2 mph 1018.8mb 51f 50f
4:54 1 2 mph 1018.8mb 51f 50f
4:48  -  2 mph 1018.7mb 51f 50f
4:36 1 2 mph 1018.6mb 51f 51f
4:30  -  3 mph 1018.5mb 51f 50f
4:24 1 3 mph 1018.5mb 51f 50f
4:18 2 3 mph 1018.5mb 51f 50f
4:12 2 3 mph 1018.5mb 51f 50f
4:06 3 5 mph 1018.4mb 51f 50f
4:00 5 5 mph 1018.5mb 51f 50f
3:54 3 5 mph 1018.4mb 51f 50f
3:48 2 3 mph 1018.4mb 51f 50f
3:36 1 2 mph 1018.5mb 51f 51f
3:30 3 3 mph 1018.5mb 51f 51f
3:24 2 3 mph 1018.6mb 51f 52f
3:18 1 2 mph 1018.6mb 51f 52f
3:12 1 3 mph 1018.5mb 51f 53f
3:06 2 5 mph 1018.6mb 51f 53f
3:00 2 5 mph 1018.6mb 51f 53f
2:54 2 5 mph 1018.5mb 51f 53f
2:48 3 5 mph 1018.5mb 51f 53f
2:36 5 6 mph 1018.5mb 51f 51f
2:30 5 6 mph 1018.4mb 51f 53f
2:24  -  1 mph 1018.4mb 51f 54f
2:18  -  2 mph 1018.3mb 51f 53f
2:12 1 2 mph 1018.3mb 51f 53f
2:06 1 2 mph 1018.4mb 51f 53f
2:00 2 3 mph 1018.4mb 51f 53f
1:54 2 3 mph 1018.3mb 51f 53f
1:48 2 5 mph 1018.4mb 51f 53f
1:36 1 2 mph 1018.3mb 51f 53f
1:30 3 5 mph 1018.3mb 51f 53f
1:24 2 3 mph 1018.3mb 51f 53f
1:18 3 3 mph 1018.3mb 51f 53f
1:12 3 3 mph 1018.3mb 51f 53f
1:06 3 5 mph 1018.3mb 51f 53f
1:00 3 5 mph 1018.3mb 51f 53f
12:54 3 3 mph 1018.3mb 51f 53f
12:48 3 5 mph 1018.3mb 51f 53f
12:36 5 6 mph 1018.2mb 51f 54f
12:30 5 6 mph 1018.2mb 51f 54f
12:24 3 5 mph 1018.2mb 51f 55f
12:18 3 6 mph 1018.2mb 50f 55f
12:12 3 5 mph 1018.2mb 50f 55f
12:06 2 5 mph 1018.1mb 50f 55f
12:00 2 3 mph 1018.1mb 50f 55f
sáb 05/27 11:54 2 5 mph 1018.1mb 50f 55f
11:48 2 5 mph 1018mb 50f 55f
11:36 3 5 mph 1017.9mb 50f 55f
11:30 1 3 mph 1017.9mb 50f 55f
11:24 1 2 mph 1018mb 50f 55f
11:18  -  1 mph 1018mb 50f 54f
11:12  -  0 mph 1018mb 50f 54f
11:06  -  2 mph 1018mb 50f 55f
11:00 2 3 mph 1017.9mb 50f 55f
10:54 2 3 mph 1017.9mb 50f 55f
10:36 6 6 mph 1018mb 50f 57f
10:30 6 8 mph 1018mb 50f 57f
10:24 7 8 mph 1018mb 50f 57f
10:18 6 7 mph 1018.1mb 50f 58f
10:12 5 7 mph 1018.1mb 50f 59f
10:06 3 7 mph 1018mb 50f 59f
10:00 1 2 mph 1017.9mb 50f 58f
9:54  -  2 mph 1017.9mb 50f 58f
9:48  -  1 mph 1017.8mb 50f 57f
9:36  -  2 mph 1017.6mb 50f 58f
9:30 1 2 mph 1017.6mb 51f 58f
9:24 1 2 mph 1017.6mb 51f 58f
9:18 2 2 mph 1017.6mb 51f 58f
9:12  -  1 mph 1017.5mb 51f 59f
9:06  -  2 mph 1017.5mb 51f 60f
9:00 1 2 mph 1017.5mb 51f 60f
8:54  -  1 mph 1017.5mb 51f 60f
8:48  -  2 mph 1017.5mb 51f 60f
8:36 2 2 mph 1017.5mb 51f 59f
8:30  -  1 mph 1017.5mb 51f 60f
8:24  -  0 mph 1017.5mb 51f 60f
8:18  -  2 mph 1017.5mb 51f 63f
8:12  -  1 mph 1017.5mb 51f 63f
8:06  -  0 mph 1017.5mb 51f 63f
8:00  -  1 mph 1017.5mb 51f 63f
7:54  -  1 mph 1017.5mb 51f 64f
7:48  -  1 mph 1017.4mb 51f 65f
7:36  -  1 mph 1017.5mb 51f 64f
7:30  -  2 mph 1017.5mb 51f 61f
7:24  -  1 mph 1017.6mb 51f 60f
7:18  -  1 mph 1017.6mb 51f 61f
7:12  -  1 mph 1017.6mb 51f 62f
7:06  -  0 mph 1017.7mb 51f 64f
7:00  -  1 mph 1017.7mb 51f 65f
6:54  -  1 mph 1017.7mb 51f 65f
6:48  -  0 mph 1017.7mb 51f 67f
6:36  -  2 mph 1017.7mb 51f 65f
6:30  -  2 mph 1017.8mb 51f 67f
6:24 2 2 mph 1017.7mb 51f 66f
6:18 1 3 mph 1017.8mb 51f 67f
6:12 1 2 mph 1017.8mb 50f 66f
6:06 1 2 mph 1017.8mb 50f 65f
6:00  -  1 mph 1017.8mb 50f 65f
5:54  -  1 mph 1017.9mb 50f 67f
5:48  -  2 mph 1018mb 50f 67f
5:36 2 3 mph 1018mb 50f 66f
5:30 1 2 mph 1018mb 50f 68f
5:24 1 3 mph 1018mb 50f 67f
5:18 1 3 mph 1018.1mb 50f 67f
5:12  -  1 mph 1018.1mb 50f 67f
5:06 1 3 mph 1018.1mb 50f 64f
5:00 2 3 mph 1018.1mb 50f 64f
4:54 1 2 mph 1018.2mb 50f 70f
4:48  -  2 mph 1018.2mb 50f 72f
4:36 1 5 mph 1018.3mb 50f 69f
4:30 3 5 mph 1018.3mb 50f 72f
4:24 1 5 mph 1018.4mb 50f 71f
4:18 5 5 mph 1018.4mb 50f 72f
4:12 5 6 mph 1018.5mb 50f 71f
4:06 3 3 mph 1018.5mb 51f 71f
4:00 2 5 mph 1018.5mb 51f 71f
3:54 3 5 mph 1018.6mb 51f 71f
3:48 3 5 mph 1018.7mb 51f 70f
3:36 3 3 mph 1018.8mb 51f 70f
3:30 2 2 mph 1018.8mb 51f 69f
3:24 2 3 mph 1018.8mb 51f 70f
3:18 3 3 mph 1018.9mb 51f 69f
3:12 3 5 mph 1018.9mb 51f 69f
3:06 5 5 mph 1019mb 51f 68f
3:00 3 5 mph 1019mb 52f 68f
2:54 3 5 mph 1019mb 52f 68f
2:48 3 5 mph 1019mb 52f 68f
2:36 3 3 mph 1019.2mb 52f 68f
2:30 3 5 mph 1019.2mb 52f 68f
2:24 3 3 mph 1019.2mb 52f 68f
2:18 2 3 mph 1019.2mb 52f 68f
2:12 2 3 mph 1019.3mb 53f 68f
2:06 2 3 mph 1019.3mb 53f 68f
2:00 2 2 mph 1019.3mb 53f 68f
1:54 2 2 mph 1019.3mb 52f 68f
1:48 2 3 mph 1019.4mb 52f 67f
1:36 2 3 mph 1019.4mb 52f 66f
1:30 2 3 mph 1019.4mb 52f 67f
1:24 2 3 mph 1019.5mb 51f 67f
1:18 2 3 mph 1019.5mb 51f 67f
1:12 2 3 mph 1019.5mb 51f 67f
1:06 2 2 mph 1019.5mb 51f 67f
1:00 2 3 mph 1019.5mb 51f 67f
12:54 2 3 mph 1019.5mb 51f 67f
12:48 3 5 mph 1019.5mb 51f 67f
12:36 2 3 mph 1019.6mb 51f 65f
12:30 2 3 mph 1019.6mb 52f 66f
12:24 2 3 mph 1019.6mb 52f 66f
12:18 2 3 mph 1019.5mb 52f 66f
12:12 2 3 mph 1019.5mb 52f 65f
12:06 1 3 mph 1019.5mb 52f 66f
12:00 2 5 mph 1019.5mb 51f 66f
11:54 3 5 mph 1019.6mb 51f 66f
11:48 3 5 mph 1019.6mb 51f 65f
11:36 3 5 mph 1019.5mb 51f 65f
11:30 5 6 mph 1019.5mb 51f 65f
11:24 5 6 mph 1019.5mb 51f 65f
11:18 6 6 mph 1019.5mb 51f 65f
11:12 6 8 mph 1019.5mb 51f 65f
11:06 7 8 mph 1019.6mb 51f 64f
11:00 6 7 mph 1019.5mb 51f 64f
10:54 6 8 mph 1019.5mb 51f 64f
10:48 6 7 mph 1019.5mb 51f 64f
10:36 5 6 mph 1019.5mb 51f 63f
10:30 6 6 mph 1019.5mb 51f 62f
10:24 6 6 mph 1019.4mb 51f 61f
10:18 6 6 mph 1019.4mb 51f 61f
10:12 5 5 mph 1019.4mb 51f 61f
10:06 3 5 mph 1019.4mb 51f 61f
10:00 3 5 mph 1019.4mb 51f 61f
9:54 5 5 mph 1019.4mb 51f 61f
9:48 3 5 mph 1019.5mb 51f 61f
9:36 3 5 mph 1019.5mb 51f 60f
9:30 5 6 mph 1019.6mb 51f 60f
9:24 3 5 mph 1019.5mb 51f 60f
9:18 5 6 mph 1019.5mb 51f 60f
9:12 5 6 mph 1019.5mb 51f 60f
9:06  -  3 mph 1019.4mb 51f 60f
9:00 2 3 mph 1019.4mb 51f 61f
8:54 3 5 mph 1019.4mb 51f 59f
8:48 6 8 mph 1019.4mb 51f 58f
8:36 5 6 mph 1019.4mb 51f 53f
8:30 3 5 mph 1019.4mb 51f 53f
8:24 2 3 mph 1019.3mb 51f 54f
8:18  -  1 mph 1019.3mb 51f 55f
8:12 1 3 mph 1019.2mb 51f 55f
8:06 3 5 mph 1019.2mb 51f 53f
8:00 5 5 mph 1019.1mb 51f 52f
7:54 5 6 mph 1019.1mb 51f 52f
7:48 5 5 mph 1019mb 51f 52f
7:36 3 3 mph 1018.9mb 51f 52f
7:30 2 3 mph 1018.9mb 51f 52f
7:24 3 5 mph 1018.8mb 51f 52f
7:18 3 5 mph 1018.8mb 51f 53f
7:12  -  2 mph 1018.7mb 51f 55f
7:06  -  1 mph 1018.7mb 51f 54f
7:00 1 2 mph 1018.7mb 51f 51f
6:54 1 2 mph 1018.6mb 51f 52f
6:48 1 1 mph 1018.6mb 51f 52f
6:36 2 3 mph 1018.5mb 51f 51f
6:30 2 3 mph 1018.5mb 51f 51f
6:24  -  0 mph 1018.4mb 51f 51f
6:18  -  0 mph 1018.3mb 51f 52f
6:12  -  0 mph 1018.2mb 51f 51f
6:06  -  0 mph 1018.2mb 50f 51f
6:00  -  0 mph 1018.2mb 50f 52f
5:54  -  0 mph 1018.2mb 50f 51f
5:48  -  0 mph 1018.1mb 50f 51f
5:36 1 2 mph 1018.1mb 50f 49f
5:30 2 3 mph 1018mb 51f 49f
5:24 2 3 mph 1017.9mb 51f 49f
5:18 1 1 mph 1017.9mb 51f 49f
5:12  -  0 mph 1017.9mb 51f 50f
5:06  -  0 mph 1017.8mb 51f 50f
5:00  -  2 mph 1017.8mb 51f 51f
4:54  -  1 mph 1017.7mb 51f 51f
4:48  -  1 mph 1017.7mb 51f 51f
4:36  -  2 mph 1017.6mb 51f 50f
4:30 1 2 mph 1017.6mb 51f 50f
4:24 2 2 mph 1017.6mb 51f 49f
4:18 2 2 mph 1017.6mb 51f 49f
4:12 2 2 mph 1017.6mb 51f 49f
4:06  -  1 mph 1017.6mb 51f 49f
4:00  -  2 mph 1017.5mb 51f 49f
3:54 1 1 mph 1017.5mb 51f 49f
3:36  -  1 mph 1017.4mb 51f 50f
3:30 2 3 mph 1017.4mb 51f 50f
3:24 3 3 mph 1017.4mb 51f 50f
3:18 1 2 mph 1017.4mb 51f 51f
3:12  -  1 mph 1017.4mb 51f 51f
3:06  -  1 mph 1017.4mb 51f 52f
3:00  -  1 mph 1017.3mb 51f 51f
2:54  -  1 mph 1017.3mb 51f 51f
2:48  -  2 mph 1017.3mb 51f 51f
2:36  -  1 mph 1017.2mb 51f 51f
2:30  -  0 mph 1017.2mb 51f 51f
2:24  -  5 mph 1017.2mb 51f 51f
2:18  -  1 mph 1017.1mb 51f 51f
2:12  -  1 mph 1017mb 51f 51f
2:06 2 2 mph 1016.9mb 51f 51f
2:00 1 3 mph 1016.9mb 51f 51f
1:54 2 3 mph 1016.8mb 51f 51f
1:48 2 2 mph 1016.8mb 51f 51f
1:36 1 3 mph 1016.8mb 51f 51f
1:30 2 3 mph 1016.7mb 51f 51f
1:24 2 2 mph 1016.7mb 51f 51f
1:18 2 2 mph 1016.6mb 51f 51f
1:12 2 3 mph 1016.6mb 51f 51f
1:06 2 3 mph 1016.6mb 51f 51f
1:00 1 2 mph 1016.6mb 51f 51f
12:54  -  1 mph 1016.6mb 51f 52f
12:48  -  1 mph 1016.5mb 51f 52f
12:36 2 3 mph 1016.4mb 51f 52f
12:30  -  1 mph 1016.4mb 51f 52f
12:24  -  1 mph 1016.3mb 51f 52f
12:18  -  2 mph 1016.3mb 51f 52f
12:12 2 3 mph 1016.2mb 51f 52f
12:06 1 2 mph 1016.2mb 51f 52f
12:00 1 3 mph 1016.1mb 51f 52f
vie 05/26 11:54 2 5 mph 1016.1mb 51f 52f
11:48 2 5 mph 1016mb 51f 52f
11:36 3 5 mph 1016mb 51f 53f
11:30 1 3 mph 1016mb 51f 53f
11:24 1 3 mph 1016mb 51f 52f
11:18 1 3 mph 1015.9mb 51f 53f
11:12 3 5 mph 1015.9mb 51f 53f
11:06 5 6 mph 1015.9mb 51f 53f
11:00 5 5 mph 1015.9mb 51f 53f
10:54 5 6 mph 1015.8mb 51f 53f
10:48 6 6 mph 1015.8mb 51f 53f
10:36 5 6 mph 1015.9mb 51f 53f
10:30 5 7 mph 1015.8mb 51f 53f
10:24 6 6 mph 1015.8mb 51f 53f
10:18 5 6 mph 1015.7mb 51f 54f
10:12 6 7 mph 1015.7mb 51f 54f
10:06 6 7 mph 1015.7mb 51f 54f
10:00 5 6 mph 1015.7mb 51f 54f
9:54 6 7 mph 1015.7mb 51f 55f
9:36 3 6 mph 1015.5mb 50f 56f
9:30 3 6 mph 1015.4mb 50f 56f
9:24 5 6 mph 1015.4mb 50f 56f
9:18  -  1 mph 1015.3mb 50f 56f
9:12  -  1 mph 1015.2mb 50f 56f
9:06 1 2 mph 1015.1mb 50f 56f
9:00 1 2 mph 1015mb 50f 56f
8:54 1 3 mph 1015mb 50f 56f
8:36 2 3 mph 1015mb 50f 56f
8:30 2 3 mph 1015mb 50f 57f
8:24 3 5 mph 1015mb 50f 57f
8:18 3 5 mph 1015mb 50f 57f
8:12 5 6 mph 1015mb 50f 57f
8:06 5 6 mph 1015mb 50f 57f
8:00 5 6 mph 1014.9mb 50f 59f
7:54 2 3 mph 1014.9mb 50f 60f
7:48 2 3 mph 1014.9mb 50f 60f
7:36 2 3 mph 1014.8mb 50f 60f
7:30 2 5 mph 1014.8mb 50f 59f
7:24 2 6 mph 1014.8mb 50f 60f
7:18 2 5 mph 1014.7mb 50f 60f
7:12 5 7 mph 1014.7mb 50f 66f
7:06 6 7 mph 1014.7mb 50f 66f
7:00 7 9 mph 1014.7mb 50f 67f
6:54 8 11 mph 1014.8mb 50f 67f
6:48 10 13 mph 1014.8mb 50f 67f
6:36 8 9 mph 1014.8mb 50f 67f
6:30 7 8 mph 1014.7mb 50f 67f
6:24 6 8 mph 1014.7mb 50f 67f
6:18 6 7 mph 1014.7mb 50f 68f
6:12 7 8 mph 1014.7mb 50f 68f
6:06 6 7 mph 1014.7mb 50f 68f
6:00 5 7 mph 1014.8mb 50f 65f
5:54 2 3 mph 1014.8mb 50f 63f
5:48  -  1 mph 1014.8mb 50f 60f
5:36 2 3 mph 1014.8mb 50f 59f
5:30 3 5 mph 1014.8mb 50f 58f
5:24 3 3 mph 1014.7mb 50f 59f
5:18 1 3 mph 1014.7mb 50f -
5:12 3 5 mph 1014.7mb 50f -
5:06 3 5 mph 1014.7mb 50f -
5:00 3 3 mph 1014.7mb 50f -
4:54 1 5 mph 1014.7mb 50f -
4:48 3 5 mph 1014.7mb 50f -
4:36 5 5 mph 1014.6mb 50f 58f
4:30 3 5 mph 1014.6mb 50f 58f
4:24 3 3 mph 1014.6mb 50f 59f
4:18 3 3 mph 1014.6mb 50f 58f
4:12 2 3 mph 1014.6mb 50f 58f
4:06 3 3 mph 1014.6mb 50f 58f
4:00 2 3 mph 1014.6mb 50f 59f
3:54 2 3 mph 1014.6mb 50f 59f
3:48 2 3 mph 1014.6mb 50f 61f
3:36 2 3 mph 1014.7mb 50f 66f
3:30 3 5 mph 1014.7mb 50f 67f
3:24 3 5 mph 1014.7mb 50f 67f
3:18 3 5 mph 1014.8mb 51f 67f
3:12 3 3 mph 1014.8mb 51f 67f
3:06 3 5 mph 1014.8mb 51f 66f
3:00 3 5 mph 1014.7mb 51f 66f
2:54 2 3 mph 1014.8mb 52f 66f
2:48 2 3 mph 1014.8mb 52f 66f
2:36 3 5 mph 1014.8mb 52f 64f
2:30 2 5 mph 1014.9mb 52f 65f
2:24 5 5 mph 1014.9mb 52f 64f
2:18 3 6 mph 1014.9mb 52f 64f
2:12 1 5 mph 1014.9mb 52f 66f
2:06 3 5 mph 1014.9mb 52f 65f
2:00 2 10 mph 1014.9mb 52f 67f
1:54 8 10 mph 1014.9mb 52f 68f
1:48 8 8 mph 1014.9mb 52f 68f
1:36 7 9 mph 1014.8mb 52f 68f
1:30 7 9 mph 1014.9mb 52f 67f
1:24 8 9 mph 1014.9mb 52f 67f
1:18 8 9 mph 1014.9mb 52f 67f
1:12 8 9 mph 1015mb 52f 67f
1:06 8 10 mph 1015mb 52f 66f
1:00 8 9 mph 1015mb 52f 66f
12:54 8 10 mph 1015mb 52f 66f
12:48 6 8 mph 1015.1mb 52f 66f
12:36 6 9 mph 1015.1mb 52f 65f
12:30 7 10 mph 1015.1mb 52f 66f
12:24 8 10 mph 1015.1mb 52f 65f
12:18 7 8 mph 1015.1mb 51f 65f
12:12 7 8 mph 1015.1mb 51f 65f
12:06 7 8 mph 1015.1mb 51f 65f
12:00 7 8 mph 1015.1mb 51f 64f
11:54 7 8 mph 1015.1mb 51f 64f
11:48 7 9 mph 1015.1mb 51f 64f
11:36 7 8 mph 1015.2mb 51f 63f
11:30 7 8 mph 1015.2mb 51f 64f
11:24 7 8 mph 1015.2mb 51f 63f
11:18 7 8 mph 1015.2mb 51f 63f
11:12 7 8 mph 1015.1mb 51f 62f
11:06 6 9 mph 1015.2mb 51f 62f
11:00 6 10 mph 1015.2mb 51f 62f
10:54 6 8 mph 1015.2mb 51f 63f
10:48 6 9 mph 1015.1mb 51f 62f
10:36 6 9 mph 1015.1mb 51f 62f
10:30 5 8 mph 1015.1mb 51f 61f
10:24 7 9 mph 1015.1mb 51f 61f
10:18 7 9 mph 1015.1mb 51f 61f
10:12 6 8 mph 1015.1mb 51f 61f
10:06 6 9 mph 1015.1mb 51f 61f
10:00 5 7 mph 1015.2mb 51f 61f
9:54 5 7 mph 1015.2mb 51f 60f
9:48 5 8 mph 1015.2mb 51f 60f
9:36 5 9 mph 1015.1mb 51f 60f
9:30 5 7 mph 1015.1mb 51f 60f
9:24 5 7 mph 1015.1mb 51f 59f
9:18 5 7 mph 1015mb 51f 59f
9:12 7 9 mph 1015.1mb 51f 58f
9:06 6 10 mph 1015mb 51f 58f
9:00 7 9 mph 1015mb 51f 58f
8:54 7 9 mph 1015mb 51f 58f
8:48 6 8 mph 1014.9mb 51f 58f
8:36 6 8 mph 1015mb 51f 58f
8:30 2 7 mph 1015mb 51f 57f
8:24  -  3 mph 1015mb 51f 55f
8:18 2 3 mph 1014.9mb 51f 54f
8:12 2 5 mph 1014.8mb 51f 53f
8:06 1 2 mph 1014.8mb 51f 54f
8:00  -  1 mph 1014.8mb 51f 54f
7:54  -  0 mph 1014.8mb 51f 53f
7:48  -  1 mph 1014.8mb 51f 52f
7:36 1 2 mph 1014.8mb 51f 51f
7:30 2 2 mph 1014.8mb 51f 51f
7:24 1 2 mph 1014.7mb 51f 52f
7:18  -  1 mph 1014.7mb 51f 53f
7:12  -  0 mph 1014.7mb 51f 55f
7:06  -  0 mph 1014.6mb 51f 54f
7:00  -  0 mph 1014.5mb 51f 54f
6:54  -  1 mph 1014.5mb 51f 51f
6:48  -  1 mph 1014.5mb 51f 51f
6:36  -  2 mph 1014.4mb 51f 51f
6:30  -  2 mph 1014.4mb 51f 50f
6:24 1 3 mph 1014.3mb 51f 48f
6:18 2 3 mph 1014.2mb 51f 48f
6:12 3 3 mph 1014.2mb 51f 48f
6:06 3 5 mph 1014.2mb 51f 48f
6:00 3 5 mph 1014.1mb 51f 48f
5:54 2 2 mph 1014mb 51f 48f
5:48 1 2 mph 1014mb 50f 47f
5:36 2 3 mph 1013.9mb 51f 47f
5:30 1 3 mph 1013.9mb 50f 47f
5:24 1 2 mph 1013.9mb 51f 47f
5:18 2 2 mph 1013.9mb 51f 47f
5:12 1 2 mph 1013.9mb 51f 47f
5:06  -  1 mph 1013.8mb 51f 47f
5:00  -  2 mph 1013.7mb 51f 47f
4:54  -  1 mph 1013.7mb 51f 47f
4:48  -  1 mph 1013.7mb 51f 48f
4:36 2 2 mph 1013.6mb 51f 47f
4:30  -  3 mph 1013.6mb 51f 48f
4:24  -  1 mph 1013.5mb 51f 48f
4:18  -  2 mph 1013.5mb 51f 47f
4:12 1 3 mph 1013.5mb 51f 48f
4:06 2 2 mph 1013.4mb 51f 47f
4:00  -  1 mph 1013.5mb 51f 48f
3:54  -  1 mph 1013.4mb 51f 48f
3:48  -  2 mph 1013.4mb 51f 48f
3:36 1 2 mph 1013.4mb 51f 48f
3:30 2 3 mph 1013.4mb 51f 48f
3:24 2 3 mph 1013.4mb 51f 48f
3:18 1 3 mph 1013.3mb 51f 48f
3:12 2 2 mph 1013.3mb 51f 49f
3:06  -  2 mph 1013.2mb 51f 49f
3:00  -  1 mph 1013.2mb 51f 49f
2:54  -  2 mph 1013.2mb 51f 49f
2:48  -  2 mph 1013.2mb 51f 50f
2:36  -  1 mph 1013.1mb 51f 50f
2:30  -  1 mph 1013.1mb 51f 50f
2:24  -  1 mph 1013.1mb 51f 49f
2:18  -  1 mph 1013mb 51f 49f
2:12  -  2 mph 1013mb 51f 49f
2:06  -  2 mph 1012.9mb 51f 50f
2:00  -  0 mph 1012.9mb 51f 50f
1:54  -  2 mph 1012.9mb 51f 50f
1:48 1 2 mph 1012.9mb 51f 50f
1:36  -  0 mph 1012.8mb 51f 49f
1:30  -  0 mph 1012.7mb 51f 49f
1:24  -  0 mph 1012.7mb 51f 50f
1:18  -  0 mph 1012.7mb 51f 50f
1:12  -  1 mph 1012.7mb 51f 50f
1:06  -  0 mph 1012.6mb 51f 50f
1:00  -  1 mph 1012.6mb 51f 50f
12:54  -  1 mph 1012.6mb 51f 50f
12:48  -  1 mph 1012.6mb 51f 50f
12:36 1 2 mph 1012.5mb 51f 51f
12:30 2 2 mph 1012.5mb 51f 51f
12:24 1 2 mph 1012.5mb 51f 51f
12:18 1 2 mph 1012.5mb 51f 51f
12:12 2 5 mph 1012.5mb 51f 51f
12:06 2 5 mph 1012.4mb 51f 51f
12:00 2 5 mph 1012.4mb 51f 51f
jue 05/25 11:54 3 5 mph 1012.4mb 51f 51f
11:48 2 5 mph 1012.4mb 51f 51f
11:36 2 5 mph 1012.4mb 51f 51f
11:30 2 5 mph 1012.3mb 51f 52f
11:24 3 6 mph 1012.4mb 51f 51f
11:18 1 2 mph 1012.4mb 51f 51f
11:12 3 3 mph 1012.4mb 51f 52f
11:06 1 5 mph 1012.4mb 51f 51f
11:00 2 5 mph 1012.4mb 51f 52f
10:54 2 2 mph 1012.3mb 51f 51f
10:48 1 3 mph 1012.3mb 51f 52f
10:36 2 2 mph 1012.3mb 51f 52f
10:30  -  2 mph 1012.2mb 51f 52f
10:24  -  1 mph 1012.1mb 51f 52f
10:18  -  1 mph 1012mb 51f 52f
10:12 2 3 mph 1012mb 51f 52f
10:06 2 3 mph 1012mb 51f 52f
10:00 3 5 mph 1011.9mb 51f 53f
9:54 2 3 mph 1011.9mb 51f 53f
9:48 1 2 mph 1011.8mb 51f 53f
9:36  -  2 mph 1011.8mb 51f 54f
9:30 3 5 mph 1011.7mb 51f 54f
9:24  -  3 mph 1011.6mb 51f 54f
9:18 2 5 mph 1011.5mb 51f 54f
9:12 3 3 mph 1011.5mb 51f 54f
9:06 1 3 mph 1011.4mb 51f 54f
9:00  -  2 mph 1011.4mb 51f 53f
8:54  -  1 mph 1011.3mb 51f 53f
8:48 1 3 mph 1011.2mb 51f 53f
8:36 2 3 mph 1011.2mb 51f 54f
8:30 2 3 mph 1011.2mb 51f 55f
8:24  -  2 mph 1011.2mb 51f 57f
8:18 2 3 mph 1011.1mb 51f 59f
8:12 2 5 mph 1011.2mb 51f 59f
8:06 2 5 mph 1011.2mb 51f 59f
8:00 2 6 mph 1011.2mb 51f 59f
7:54 5 7 mph 1011.2mb 51f 59f
7:48 6 8 mph 1011.1mb 51f 59f
7:36 8 10 mph - 50f 60f
7:30 9 10 mph - 50f 60f
7:24 8 10 mph - 50f 60f
7:18 7 8 mph - 50f 61f
7:12 7 9 mph - 50f 60f
7:06 8 9 mph - 50f 61f
7:00 8 9 mph - 50f 62f
6:54 8 9 mph - 50f 62f
6:48 6 7 mph - 50f 62f
6:36 6 6 mph 1010.9mb 50f 61f
6:30 5 5 mph 1010.9mb 50f 61f
6:24 5 6 mph 1010.9mb 50f 61f
6:18 5 7 mph 1010.9mb 50f 62f
6:12 1 3 mph 1010.9mb 50f 61f
6:06 2 2 mph 1010.8mb 50f 61f
6:00 2 2 mph 1010.8mb 50f 62f
5:54 2 3 mph 1010.8mb 50f 62f
5:48 2 3 mph 1010.8mb 50f 62f
5:36 2 2 mph 1010.8mb 50f 62f
5:30 1 3 mph 1010.8mb 50f 61f
5:24 3 5 mph 1010.8mb 50f 61f
5:18 2 3 mph 1010.8mb 50f 63f